Wilkes Barre Scranton International Airport Wilkes-Barre,Scranton US
ICAO: KAVP
IATA: AVP
Category: Medium
Scheduled Services: Yes

Elevation: 962 ft
TransAlt. 18000 ft.

Airport Communications:
APP/DEP:124.5
ATIS:111.6
GND:121.9
WILLIAMSPORT RDO:122.2
TWR:120.1
UNICOM:122.95

KAVP Zoom In..

If you have problems with the map follow the link
https://www.worldairports.se/pages/airport.php?
ICAO=KAVP

Runways:

(A) RW 04 length 7501 ft width 150 ft
ILS 109.90 / hdg 43

(B) RW 10 length 4300 ft width 150 ft
---- / hdg 102

(C) RW 22 length 7501 ft width 150 ft
ILS 109.90 / hdg 223

(D) RW 28 length 4300 ft width 150 ft
---- / hdg 282

Location; KAVP
Day. 18 / Time. 11.54 Zulu
* Altimeter: 30.48
* Temperature: -08° c. -17.6°f.
* Wind from: 050° Speed 04 kn.
Dewpoint: -16° c.
Visibility: 10 Statute Miles.
Clouds: Overcast 9000 ft.

KAVP 181154Z 05004KT 10SM OVC090 M08/M16 A3048 RMK AO2 SLP336 T10831161 11083 21094 58029


Wind From 050°
Speed 04 kn.

 
 
jpsmedia worldairports.se 2020   terms of use